sensor_id;sensor_type;location;lat;lon;timestamp;P1;durP1;ratioP1;P2;durP2;ratioP2
17618;SDS011;8928;51.678;6.074;2024-02-26T00:00:38;5.37;;;2.20;;
17618;SDS011;8928;51.678;6.074;2024-02-26T00:03:27;5.57;;;2.20;;
17618;SDS011;8928;51.678;6.074;2024-02-26T00:06:14;5.07;;;2.00;;
17618;SDS011;8928;51.678;6.074;2024-02-26T00:09:03;4.50;;;2.30;;
17618;SDS011;8928;51.678;6.074;2024-02-26T00:11:51;5.27;;;2.20;;
17618;SDS011;8928;51.678;6.074;2024-02-26T00:14:39;4.80;;;2.43;;
17618;SDS011;8928;51.678;6.074;2024-02-26T00:17:26;4.90;;;2.30;;
17618;SDS011;8928;51.678;6.074;2024-02-26T00:20:15;7.37;;;2.40;;
17618;SDS011;8928;51.678;6.074;2024-02-26T00:23:02;6.37;;;2.17;;
17618;SDS011;8928;51.678;6.074;2024-02-26T00:25:49;5.17;;;2.30;;
17618;SDS011;8928;51.678;6.074;2024-02-26T00:28:36;4.80;;;2.20;;
17618;SDS011;8928;51.678;6.074;2024-02-26T00:31:24;5.03;;;2.50;;
17618;SDS011;8928;51.678;6.074;2024-02-26T00:34:11;5.17;;;2.37;;
17618;SDS011;8928;51.678;6.074;2024-02-26T00:37:00;6.63;;;2.43;;
17618;SDS011;8928;51.678;6.074;2024-02-26T00:39:47;7.27;;;2.40;;
17618;SDS011;8928;51.678;6.074;2024-02-26T00:42:34;6.13;;;2.27;;
17618;SDS011;8928;51.678;6.074;2024-02-26T00:45:21;6.57;;;2.83;;
17618;SDS011;8928;51.678;6.074;2024-02-26T00:48:09;4.87;;;2.30;;
17618;SDS011;8928;51.678;6.074;2024-02-26T00:50:56;5.33;;;2.40;;
17618;SDS011;8928;51.678;6.074;2024-02-26T00:53:44;5.53;;;2.40;;
17618;SDS011;8928;51.678;6.074;2024-02-26T00:56:31;4.87;;;2.50;;
17618;SDS011;8928;51.678;6.074;2024-02-26T00:59:19;7.70;;;2.50;;
17618;SDS011;8928;51.678;6.074;2024-02-26T01:02:06;6.90;;;2.80;;
17618;SDS011;8928;51.678;6.074;2024-02-26T01:04:53;4.63;;;2.30;;
17618;SDS011;8928;51.678;6.074;2024-02-26T01:07:40;6.07;;;2.53;;
17618;SDS011;8928;51.678;6.074;2024-02-26T01:10:29;4.73;;;2.37;;
17618;SDS011;8928;51.678;6.074;2024-02-26T01:13:16;4.13;;;2.30;;
17618;SDS011;8928;51.678;6.074;2024-02-26T01:16:03;5.93;;;2.23;;
17618;SDS011;8928;51.678;6.074;2024-02-26T01:18:51;23.50;;;8.07;;
17618;SDS011;8928;51.678;6.074;2024-02-26T01:21:38;5.60;;;2.43;;
17618;SDS011;8928;51.678;6.074;2024-02-26T01:24:25;7.77;;;2.70;;
17618;SDS011;8928;51.678;6.074;2024-02-26T01:27:14;4.50;;;2.17;;
17618;SDS011;8928;51.678;6.074;2024-02-26T01:30:01;4.77;;;2.40;;
17618;SDS011;8928;51.678;6.074;2024-02-26T01:32:49;4.50;;;2.30;;
17618;SDS011;8928;51.678;6.074;2024-02-26T01:35:36;5.30;;;2.67;;
17618;SDS011;8928;51.678;6.074;2024-02-26T01:38:23;6.63;;;3.47;;
17618;SDS011;8928;51.678;6.074;2024-02-26T01:41:11;6.63;;;3.20;;
17618;SDS011;8928;51.678;6.074;2024-02-26T01:44:01;5.30;;;2.87;;
17618;SDS011;8928;51.678;6.074;2024-02-26T01:46:48;6.07;;;2.40;;
17618;SDS011;8928;51.678;6.074;2024-02-26T01:49:35;7.73;;;2.67;;
17618;SDS011;8928;51.678;6.074;2024-02-26T01:52:24;3.60;;;2.10;;
17618;SDS011;8928;51.678;6.074;2024-02-26T01:55:11;8.87;;;3.23;;
17618;SDS011;8928;51.678;6.074;2024-02-26T01:57:59;9.60;;;3.07;;
17618;SDS011;8928;51.678;6.074;2024-02-26T02:00:48;6.13;;;2.83;;
17618;SDS011;8928;51.678;6.074;2024-02-26T02:03:36;6.90;;;2.40;;
17618;SDS011;8928;51.678;6.074;2024-02-26T02:06:23;4.50;;;2.20;;
17618;SDS011;8928;51.678;6.074;2024-02-26T02:09:11;5.23;;;2.63;;
17618;SDS011;8928;51.678;6.074;2024-02-26T02:11:59;5.83;;;2.40;;
17618;SDS011;8928;51.678;6.074;2024-02-26T02:14:47;5.90;;;2.53;;
17618;SDS011;8928;51.678;6.074;2024-02-26T02:17:36;5.13;;;2.20;;
17618;SDS011;8928;51.678;6.074;2024-02-26T02:20:26;4.33;;;2.40;;
17618;SDS011;8928;51.678;6.074;2024-02-26T02:23:17;3.93;;;2.20;;
17618;SDS011;8928;51.678;6.074;2024-02-26T02:26:05;4.87;;;2.40;;
17618;SDS011;8928;51.678;6.074;2024-02-26T02:28:52;6.70;;;2.90;;
17618;SDS011;8928;51.678;6.074;2024-02-26T02:31:40;7.00;;;3.20;;
17618;SDS011;8928;51.678;6.074;2024-02-26T02:34:27;8.37;;;3.20;;
17618;SDS011;8928;51.678;6.074;2024-02-26T02:37:16;8.23;;;3.50;;
17618;SDS011;8928;51.678;6.074;2024-02-26T02:40:04;6.17;;;3.17;;
17618;SDS011;8928;51.678;6.074;2024-02-26T02:42:52;4.83;;;2.63;;
17618;SDS011;8928;51.678;6.074;2024-02-26T02:45:39;5.33;;;2.77;;
17618;SDS011;8928;51.678;6.074;2024-02-26T02:48:26;5.30;;;2.90;;
17618;SDS011;8928;51.678;6.074;2024-02-26T02:51:13;5.13;;;2.80;;
17618;SDS011;8928;51.678;6.074;2024-02-26T02:54:02;5.50;;;2.80;;
17618;SDS011;8928;51.678;6.074;2024-02-26T02:56:49;4.23;;;2.50;;
17618;SDS011;8928;51.678;6.074;2024-02-26T02:59:36;5.47;;;2.93;;
17618;SDS011;8928;51.678;6.074;2024-02-26T03:02:24;6.17;;;2.70;;
17618;SDS011;8928;51.678;6.074;2024-02-26T03:05:11;7.20;;;2.97;;
17618;SDS011;8928;51.678;6.074;2024-02-26T03:07:58;6.57;;;2.93;;
17618;SDS011;8928;51.678;6.074;2024-02-26T03:10:47;4.80;;;2.70;;
17618;SDS011;8928;51.678;6.074;2024-02-26T03:13:34;5.60;;;2.97;;
17618;SDS011;8928;51.678;6.074;2024-02-26T03:16:21;6.23;;;3.07;;
17618;SDS011;8928;51.678;6.074;2024-02-26T03:19:08;6.03;;;3.07;;
17618;SDS011;8928;51.678;6.074;2024-02-26T03:21:56;6.37;;;3.20;;
17618;SDS011;8928;51.678;6.074;2024-02-26T03:24:43;8.03;;;3.17;;
17618;SDS011;8928;51.678;6.074;2024-02-26T03:27:31;5.13;;;2.73;;
17618;SDS011;8928;51.678;6.074;2024-02-26T03:30:18;5.87;;;3.00;;
17618;SDS011;8928;51.678;6.074;2024-02-26T03:33:05;6.00;;;3.17;;
17618;SDS011;8928;51.678;6.074;2024-02-26T03:35:53;12.30;;;5.07;;
17618;SDS011;8928;51.678;6.074;2024-02-26T03:38:40;7.17;;;3.23;;
17618;SDS011;8928;51.678;6.074;2024-02-26T03:41:27;5.57;;;3.00;;
17618;SDS011;8928;51.678;6.074;2024-02-26T03:44:16;7.37;;;3.10;;
17618;SDS011;8928;51.678;6.074;2024-02-26T03:47:03;8.87;;;3.27;;
17618;SDS011;8928;51.678;6.074;2024-02-26T03:49:50;8.17;;;3.30;;
17618;SDS011;8928;51.678;6.074;2024-02-26T03:52:37;5.93;;;3.20;;
17618;SDS011;8928;51.678;6.074;2024-02-26T03:55:24;9.33;;;3.47;;
17618;SDS011;8928;51.678;6.074;2024-02-26T03:58:12;9.80;;;3.73;;
17618;SDS011;8928;51.678;6.074;2024-02-26T04:01:00;6.97;;;3.40;;
17618;SDS011;8928;51.678;6.074;2024-02-26T04:03:47;13.00;;;4.87;;
17618;SDS011;8928;51.678;6.074;2024-02-26T04:06:35;9.17;;;3.73;;
17618;SDS011;8928;51.678;6.074;2024-02-26T04:09:22;6.30;;;3.47;;
17618;SDS011;8928;51.678;6.074;2024-02-26T04:12:09;7.13;;;3.40;;
17618;SDS011;8928;51.678;6.074;2024-02-26T04:14:57;10.17;;;3.70;;
17618;SDS011;8928;51.678;6.074;2024-02-26T04:17:45;6.53;;;3.33;;
17618;SDS011;8928;51.678;6.074;2024-02-26T04:20:32;5.87;;;3.43;;
17618;SDS011;8928;51.678;6.074;2024-02-26T04:23:19;7.90;;;3.43;;
17618;SDS011;8928;51.678;6.074;2024-02-26T04:26:07;6.90;;;3.70;;
17618;SDS011;8928;51.678;6.074;2024-02-26T04:28:54;8.43;;;3.10;;
17618;SDS011;8928;51.678;6.074;2024-02-26T04:31:41;6.77;;;3.20;;
17618;SDS011;8928;51.678;6.074;2024-02-26T04:34:30;7.17;;;3.23;;
17618;SDS011;8928;51.678;6.074;2024-02-26T04:37:17;6.83;;;3.17;;
17618;SDS011;8928;51.678;6.074;2024-02-26T04:40:05;7.00;;;2.90;;
17618;SDS011;8928;51.678;6.074;2024-02-26T04:42:53;5.50;;;3.07;;
17618;SDS011;8928;51.678;6.074;2024-02-26T04:48:17;5.00;;;3.00;;
17618;SDS011;8928;51.678;6.074;2024-02-26T04:51:06;6.27;;;3.10;;
17618;SDS011;8928;51.678;6.074;2024-02-26T04:53:53;5.17;;;2.80;;
17618;SDS011;8928;51.678;6.074;2024-02-26T04:56:40;5.83;;;3.03;;
17618;SDS011;8928;51.678;6.074;2024-02-26T04:59:27;6.83;;;3.00;;
17618;SDS011;8928;51.678;6.074;2024-02-26T05:02:14;4.97;;;2.63;;
17618;SDS011;8928;51.678;6.074;2024-02-26T05:05:02;6.53;;;3.00;;
17618;SDS011;8928;51.678;6.074;2024-02-26T05:07:51;6.17;;;2.93;;
17618;SDS011;8928;51.678;6.074;2024-02-26T05:10:38;5.53;;;2.80;;
17618;SDS011;8928;51.678;6.074;2024-02-26T05:13:26;4.70;;;2.80;;
17618;SDS011;8928;51.678;6.074;2024-02-26T05:16:13;10.73;;;3.03;;
17618;SDS011;8928;51.678;6.074;2024-02-26T05:19:00;5.57;;;2.87;;
17618;SDS011;8928;51.678;6.074;2024-02-26T05:21:48;5.77;;;2.90;;
17618;SDS011;8928;51.678;6.074;2024-02-26T05:24:38;6.33;;;2.50;;
17618;SDS011;8928;51.678;6.074;2024-02-26T05:27:26;5.37;;;3.00;;
17618;SDS011;8928;51.678;6.074;2024-02-26T05:30:13;6.23;;;3.00;;
17618;SDS011;8928;51.678;6.074;2024-02-26T05:33:00;5.40;;;2.83;;
17618;SDS011;8928;51.678;6.074;2024-02-26T05:35:47;8.30;;;3.03;;
17618;SDS011;8928;51.678;6.074;2024-02-26T05:38:35;6.43;;;3.10;;
17618;SDS011;8928;51.678;6.074;2024-02-26T05:41:23;5.13;;;3.10;;
17618;SDS011;8928;51.678;6.074;2024-02-26T05:44:11;7.27;;;3.33;;
17618;SDS011;8928;51.678;6.074;2024-02-26T05:47:00;7.00;;;3.27;;
17618;SDS011;8928;51.678;6.074;2024-02-26T05:49:47;5.87;;;3.37;;
17618;SDS011;8928;51.678;6.074;2024-02-26T05:52:34;7.17;;;3.30;;
17618;SDS011;8928;51.678;6.074;2024-02-26T05:55:21;8.87;;;3.53;;
17618;SDS011;8928;51.678;6.074;2024-02-26T05:58:09;7.57;;;3.73;;
17618;SDS011;8928;51.678;6.074;2024-02-26T06:00:57;14.53;;;5.90;;
17618;SDS011;8928;51.678;6.074;2024-02-26T06:03:45;9.63;;;3.83;;
17618;SDS011;8928;51.678;6.074;2024-02-26T06:06:32;7.97;;;4.13;;
17618;SDS011;8928;51.678;6.074;2024-02-26T06:09:19;10.63;;;4.10;;
17618;SDS011;8928;51.678;6.074;2024-02-26T06:12:07;7.53;;;3.97;;
17618;SDS011;8928;51.678;6.074;2024-02-26T06:14:55;8.47;;;4.20;;
17618;SDS011;8928;51.678;6.074;2024-02-26T06:17:42;9.13;;;4.33;;
17618;SDS011;8928;51.678;6.074;2024-02-26T06:20:30;10.60;;;4.30;;
17618;SDS011;8928;51.678;6.074;2024-02-26T06:23:17;8.43;;;4.10;;
17618;SDS011;8928;51.678;6.074;2024-02-26T06:26:04;13.20;;;4.67;;
17618;SDS011;8928;51.678;6.074;2024-02-26T06:28:51;8.43;;;4.80;;
17618;SDS011;8928;51.678;6.074;2024-02-26T06:31:41;9.40;;;4.90;;
17618;SDS011;8928;51.678;6.074;2024-02-26T06:34:28;9.37;;;4.80;;
17618;SDS011;8928;51.678;6.074;2024-02-26T06:37:16;9.70;;;4.90;;
17618;SDS011;8928;51.678;6.074;2024-02-26T06:40:03;9.80;;;4.93;;
17618;SDS011;8928;51.678;6.074;2024-02-26T06:42:51;9.93;;;4.97;;
17618;SDS011;8928;51.678;6.074;2024-02-26T06:53:52;10.40;;;4.93;;
17618;SDS011;8928;51.678;6.074;2024-02-26T06:56:39;12.47;;;5.73;;
17618;SDS011;8928;51.678;6.074;2024-02-26T06:59:26;10.97;;;4.63;;
17618;SDS011;8928;51.678;6.074;2024-02-26T07:02:14;10.23;;;4.30;;
17618;SDS011;8928;51.678;6.074;2024-02-26T07:05:01;9.87;;;5.00;;
17618;SDS011;8928;51.678;6.074;2024-02-26T07:14:19;7.80;;;4.20;;
17618;SDS011;8928;51.678;6.074;2024-02-26T07:17:06;12.37;;;4.90;;
17618;SDS011;8928;51.678;6.074;2024-02-26T07:19:53;7.87;;;4.37;;
17618;SDS011;8928;51.678;6.074;2024-02-26T07:22:40;9.33;;;4.73;;
17618;SDS011;8928;51.678;6.074;2024-02-26T07:34:16;9.50;;;4.43;;
17618;SDS011;8928;51.678;6.074;2024-02-26T07:37:03;8.03;;;4.40;;
17618;SDS011;8928;51.678;6.074;2024-02-26T07:39:52;10.27;;;4.93;;
17618;SDS011;8928;51.678;6.074;2024-02-26T07:42:39;9.60;;;4.53;;
17618;SDS011;8928;51.678;6.074;2024-02-26T07:56:27;8.90;;;4.70;;
17618;SDS011;8928;51.678;6.074;2024-02-26T07:59:14;9.50;;;5.20;;
17618;SDS011;8928;51.678;6.074;2024-02-26T08:02:01;11.13;;;5.00;;
17618;SDS011;8928;51.678;6.074;2024-02-26T08:04:49;9.30;;;4.97;;
17618;SDS011;8928;51.678;6.074;2024-02-26T08:07:36;8.40;;;4.73;;
17618;SDS011;8928;51.678;6.074;2024-02-26T08:10:23;10.47;;;5.27;;
17618;SDS011;8928;51.678;6.074;2024-02-26T08:13:11;10.73;;;5.30;;
17618;SDS011;8928;51.678;6.074;2024-02-26T08:15:58;8.57;;;4.83;;
17618;SDS011;8928;51.678;6.074;2024-02-26T08:18:46;9.97;;;5.17;;
17618;SDS011;8928;51.678;6.074;2024-02-26T08:21:33;10.67;;;5.27;;
17618;SDS011;8928;51.678;6.074;2024-02-26T08:24:20;10.43;;;5.50;;
17618;SDS011;8928;51.678;6.074;2024-02-26T08:27:07;9.57;;;5.10;;
17618;SDS011;8928;51.678;6.074;2024-02-26T08:29:56;9.90;;;5.33;;
17618;SDS011;8928;51.678;6.074;2024-02-26T08:32:43;9.73;;;5.30;;
17618;SDS011;8928;51.678;6.074;2024-02-26T08:35:30;12.53;;;5.43;;
17618;SDS011;8928;51.678;6.074;2024-02-26T08:38:18;8.87;;;5.20;;
17618;SDS011;8928;51.678;6.074;2024-02-26T08:41:06;10.20;;;5.17;;
17618;SDS011;8928;51.678;6.074;2024-02-26T08:43:53;9.13;;;5.30;;
17618;SDS011;8928;51.678;6.074;2024-02-26T09:10:52;10.73;;;5.40;;
17618;SDS011;8928;51.678;6.074;2024-02-26T09:13:39;14.17;;;5.30;;
17618;SDS011;8928;51.678;6.074;2024-02-26T09:16:27;8.67;;;5.00;;
17618;SDS011;8928;51.678;6.074;2024-02-26T09:19:14;11.37;;;5.23;;
17618;SDS011;8928;51.678;6.074;2024-02-26T09:22:01;10.80;;;5.23;;
17618;SDS011;8928;51.678;6.074;2024-02-26T09:24:49;9.90;;;5.00;;
17618;SDS011;8928;51.678;6.074;2024-02-26T09:51:00;9.43;;;5.03;;
17618;SDS011;8928;51.678;6.074;2024-02-26T09:54:34;8.80;;;4.77;;
17618;SDS011;8928;51.678;6.074;2024-02-26T09:57:22;9.83;;;5.03;;
17618;SDS011;8928;51.678;6.074;2024-02-26T10:00:10;9.07;;;5.00;;
17618;SDS011;8928;51.678;6.074;2024-02-26T10:03:04;12.10;;;5.67;;
17618;SDS011;8928;51.678;6.074;2024-02-26T10:17:01;14.27;;;5.93;;
17618;SDS011;8928;51.678;6.074;2024-02-26T10:19:48;14.67;;;6.50;;
17618;SDS011;8928;51.678;6.074;2024-02-26T10:22:37;12.73;;;6.13;;
17618;SDS011;8928;51.678;6.074;2024-02-26T10:25:24;11.23;;;6.20;;
17618;SDS011;8928;51.678;6.074;2024-02-26T10:28:11;12.57;;;6.43;;
17618;SDS011;8928;51.678;6.074;2024-02-26T10:30:58;12.30;;;6.63;;
17618;SDS011;8928;51.678;6.074;2024-02-26T10:33:47;13.50;;;6.33;;
17618;SDS011;8928;51.678;6.074;2024-02-26T12:17:59;34.77;;;12.83;;
17618;SDS011;8928;51.678;6.074;2024-02-26T12:20:56;36.60;;;12.87;;
17618;SDS011;8928;51.678;6.074;2024-02-26T12:23:46;39.37;;;13.37;;
17618;SDS011;8928;51.678;6.074;2024-02-26T12:26:33;38.33;;;14.47;;
17618;SDS011;8928;51.678;6.074;2024-02-26T12:29:21;40.53;;;13.20;;
17618;SDS011;8928;51.678;6.074;2024-02-26T12:32:08;38.90;;;13.80;;
17618;SDS011;8928;51.678;6.074;2024-02-26T12:34:57;42.77;;;14.37;;
17618;SDS011;8928;51.678;6.074;2024-02-26T12:42:51;42.67;;;14.40;;
17618;SDS011;8928;51.678;6.074;2024-02-26T12:45:40;43.73;;;14.30;;
17618;SDS011;8928;51.678;6.074;2024-02-26T12:48:27;47.37;;;15.13;;
17618;SDS011;8928;51.678;6.074;2024-02-26T12:51:16;41.97;;;14.17;;
17618;SDS011;8928;51.678;6.074;2024-02-26T12:54:04;42.60;;;14.47;;
17618;SDS011;8928;51.678;6.074;2024-02-26T12:56:52;42.10;;;13.70;;
17618;SDS011;8928;51.678;6.074;2024-02-26T12:59:39;41.70;;;14.30;;
17618;SDS011;8928;51.678;6.074;2024-02-26T13:02:27;40.40;;;14.03;;
17618;SDS011;8928;51.678;6.074;2024-02-26T13:05:14;38.87;;;13.50;;
17618;SDS011;8928;51.678;6.074;2024-02-26T13:08:04;33.77;;;12.87;;
17618;SDS011;8928;51.678;6.074;2024-02-26T13:10:52;35.17;;;12.73;;
17618;SDS011;8928;51.678;6.074;2024-02-26T13:13:39;39.93;;;12.17;;
17618;SDS011;8928;51.678;6.074;2024-02-26T13:16:26;33.77;;;11.80;;
17618;SDS011;8928;51.678;6.074;2024-02-26T13:19:13;35.57;;;11.90;;
17618;SDS011;8928;51.678;6.074;2024-02-26T13:22:04;29.73;;;10.60;;
17618;SDS011;8928;51.678;6.074;2024-02-26T13:24:57;32.07;;;10.77;;
17618;SDS011;8928;51.678;6.074;2024-02-26T13:27:45;28.13;;;10.87;;
17618;SDS011;8928;51.678;6.074;2024-02-26T13:30:32;33.00;;;10.97;;
17618;SDS011;8928;51.678;6.074;2024-02-26T13:33:19;28.20;;;9.93;;
17618;SDS011;8928;51.678;6.074;2024-02-26T13:36:08;27.10;;;9.87;;
17618;SDS011;8928;51.678;6.074;2024-02-26T13:38:57;26.73;;;9.93;;
17618;SDS011;8928;51.678;6.074;2024-02-26T13:41:46;26.47;;;9.73;;
17618;SDS011;8928;51.678;6.074;2024-02-26T13:44:33;27.20;;;9.93;;
17618;SDS011;8928;51.678;6.074;2024-02-26T13:47:24;23.43;;;8.93;;
17618;SDS011;8928;51.678;6.074;2024-02-26T13:50:11;27.97;;;10.27;;
17618;SDS011;8928;51.678;6.074;2024-02-26T13:52:59;26.87;;;9.10;;
17618;SDS011;8928;51.678;6.074;2024-02-26T13:55:46;27.37;;;10.00;;
17618;SDS011;8928;51.678;6.074;2024-02-26T13:58:34;26.53;;;9.63;;
17618;SDS011;8928;51.678;6.074;2024-02-26T14:01:22;27.40;;;9.47;;
17618;SDS011;8928;51.678;6.074;2024-02-26T14:04:09;26.33;;;9.97;;
17618;SDS011;8928;51.678;6.074;2024-02-26T14:09:26;24.83;;;9.50;;
17618;SDS011;8928;51.678;6.074;2024-02-26T14:12:19;24.93;;;9.60;;
17618;SDS011;8928;51.678;6.074;2024-02-26T14:15:08;23.63;;;8.83;;
17618;SDS011;8928;51.678;6.074;2024-02-26T14:17:56;20.67;;;8.30;;
17618;SDS011;8928;51.678;6.074;2024-02-26T14:20:44;25.17;;;8.40;;
17618;SDS011;8928;51.678;6.074;2024-02-26T14:23:31;22.33;;;8.97;;
17618;SDS011;8928;51.678;6.074;2024-02-26T14:26:18;19.43;;;8.13;;
17618;SDS011;8928;51.678;6.074;2024-02-26T14:29:05;22.80;;;9.07;;
17618;SDS011;8928;51.678;6.074;2024-02-26T14:31:54;22.73;;;8.87;;
17618;SDS011;8928;51.678;6.074;2024-02-26T14:34:42;20.87;;;8.30;;
17618;SDS011;8928;51.678;6.074;2024-02-26T14:37:29;21.20;;;8.70;;
17618;SDS011;8928;51.678;6.074;2024-02-26T14:40:16;24.07;;;9.17;;
17618;SDS011;8928;51.678;6.074;2024-02-26T14:43:04;23.70;;;9.07;;
17618;SDS011;8928;51.678;6.074;2024-02-26T14:45:51;26.63;;;9.27;;
17618;SDS011;8928;51.678;6.074;2024-02-26T14:48:39;22.70;;;9.00;;
17618;SDS011;8928;51.678;6.074;2024-02-26T14:51:26;21.13;;;8.77;;
17618;SDS011;8928;51.678;6.074;2024-02-26T14:54:14;23.57;;;9.43;;
17618;SDS011;8928;51.678;6.074;2024-02-26T14:57:01;24.07;;;9.63;;
17618;SDS011;8928;51.678;6.074;2024-02-26T14:59:48;25.10;;;9.73;;
17618;SDS011;8928;51.678;6.074;2024-02-26T15:02:36;23.27;;;9.37;;
17618;SDS011;8928;51.678;6.074;2024-02-26T15:05:24;23.80;;;9.17;;
17618;SDS011;8928;51.678;6.074;2024-02-26T15:08:11;21.37;;;9.27;;
17618;SDS011;8928;51.678;6.074;2024-02-26T15:11:01;25.50;;;8.87;;
17618;SDS011;8928;51.678;6.074;2024-02-26T15:13:48;24.50;;;8.97;;
17618;SDS011;8928;51.678;6.074;2024-02-26T15:16:35;21.23;;;8.43;;
17618;SDS011;8928;51.678;6.074;2024-02-26T15:19:23;20.27;;;8.70;;
17618;SDS011;8928;51.678;6.074;2024-02-26T15:22:11;19.87;;;8.50;;
17618;SDS011;8928;51.678;6.074;2024-02-26T15:24:58;24.43;;;8.90;;
17618;SDS011;8928;51.678;6.074;2024-02-26T15:27:45;21.10;;;8.63;;
17618;SDS011;8928;51.678;6.074;2024-02-26T15:30:33;24.23;;;9.43;;
17618;SDS011;8928;51.678;6.074;2024-02-26T15:33:20;25.47;;;9.13;;
17618;SDS011;8928;51.678;6.074;2024-02-26T15:36:07;22.93;;;9.20;;
17618;SDS011;8928;51.678;6.074;2024-02-26T15:38:57;22.33;;;8.57;;
17618;SDS011;8928;51.678;6.074;2024-02-26T15:41:44;22.27;;;8.97;;
17618;SDS011;8928;51.678;6.074;2024-02-26T15:44:31;21.63;;;9.27;;
17618;SDS011;8928;51.678;6.074;2024-02-26T15:47:18;21.23;;;8.70;;
17618;SDS011;8928;51.678;6.074;2024-02-26T15:50:06;20.97;;;8.77;;
17618;SDS011;8928;51.678;6.074;2024-02-26T15:52:55;23.17;;;9.07;;
17618;SDS011;8928;51.678;6.074;2024-02-26T15:55:45;22.60;;;8.40;;
17618;SDS011;8928;51.678;6.074;2024-02-26T15:58:32;19.67;;;8.60;;
17618;SDS011;8928;51.678;6.074;2024-02-26T16:01:19;22.80;;;8.77;;
17618;SDS011;8928;51.678;6.074;2024-02-26T16:04:06;23.37;;;9.10;;
17618;SDS011;8928;51.678;6.074;2024-02-26T16:06:54;24.83;;;9.73;;
17618;SDS011;8928;51.678;6.074;2024-02-26T16:09:44;22.17;;;9.07;;
17618;SDS011;8928;51.678;6.074;2024-02-26T16:12:39;24.43;;;10.30;;
17618;SDS011;8928;51.678;6.074;2024-02-26T16:15:29;21.53;;;8.03;;
17618;SDS011;8928;51.678;6.074;2024-02-26T16:18:18;21.50;;;9.00;;
17618;SDS011;8928;51.678;6.074;2024-02-26T16:21:06;24.73;;;9.73;;
17618;SDS011;8928;51.678;6.074;2024-02-26T16:23:53;22.00;;;9.07;;
17618;SDS011;8928;51.678;6.074;2024-02-26T16:26:40;20.60;;;8.40;;
17618;SDS011;8928;51.678;6.074;2024-02-26T16:29:28;21.27;;;8.53;;
17618;SDS011;8928;51.678;6.074;2024-02-26T16:32:15;22.30;;;8.27;;
17618;SDS011;8928;51.678;6.074;2024-02-26T16:35:03;22.97;;;8.43;;
17618;SDS011;8928;51.678;6.074;2024-02-26T17:22:40;26.83;;;9.20;;
17618;SDS011;8928;51.678;6.074;2024-02-26T17:25:27;25.13;;;9.07;;
17618;SDS011;8928;51.678;6.074;2024-02-26T17:28:14;21.33;;;8.57;;
17618;SDS011;8928;51.678;6.074;2024-02-26T17:31:01;25.90;;;9.13;;
17618;SDS011;8928;51.678;6.074;2024-02-26T17:33:49;24.50;;;8.97;;
17618;SDS011;8928;51.678;6.074;2024-02-26T17:43:49;28.27;;;9.97;;
17618;SDS011;8928;51.678;6.074;2024-02-26T17:50:10;31.97;;;10.73;;
17618;SDS011;8928;51.678;6.074;2024-02-26T17:52:57;28.73;;;10.70;;
17618;SDS011;8928;51.678;6.074;2024-02-26T17:55:44;24.53;;;9.90;;
17618;SDS011;8928;51.678;6.074;2024-02-26T17:58:31;27.13;;;10.20;;
17618;SDS011;8928;51.678;6.074;2024-02-26T18:01:19;31.17;;;11.23;;
17618;SDS011;8928;51.678;6.074;2024-02-26T18:04:07;27.60;;;10.73;;
17618;SDS011;8928;51.678;6.074;2024-02-26T18:06:54;24.73;;;10.17;;
17618;SDS011;8928;51.678;6.074;2024-02-26T18:09:41;26.87;;;10.70;;
17618;SDS011;8928;51.678;6.074;2024-02-26T18:12:28;27.23;;;11.33;;
17618;SDS011;8928;51.678;6.074;2024-02-26T18:15:15;29.10;;;11.57;;
